Time;durP1;ratioP1;P1;durP2;ratioP2;P2;SDS_P1;SDS_P2;PMS_P1;PMS_P2;Temp;Humidity;BMP_temperature;BMP_pressure;BME280_temperature;BME280_humidity;BME280_pressure;Samples;Min_cycle;Max_cycle;Signal;HPM_P1;HPM_P2
2021/12/29 00:00:38;;;;;;;3.10;1.60;;;;;;;;;;4953750;28;20204;-86
2021/12/29 00:03:07;;;;;;;3.60;1.27;;;;;;;;;;4954226;28;20208;-87
2021/12/29 00:05:41;;;;;;;2.93;1.50;;;;;;;;;;4960071;28;20228;-87
2021/12/29 00:08:09;;;;;;;2.80;1.20;;;;;;;;;;4954286;29;20319;-87
2021/12/29 00:10:36;;;;;;;4.77;1.37;;;;;;;;;;4957806;28;20247;-86
2021/12/29 00:13:06;;;;;;;3.67;1.40;;;;;;;;;;4958785;28;20204;-87
2021/12/29 00:15:36;;;;;;;3.53;1.33;;;;;;;;;;4958523;28;20267;-87
2021/12/29 00:18:09;;;;;;;3.60;1.30;;;;;;;;;;4959289;28;20284;-87
2021/12/29 00:20:39;;;;;;;3.80;1.23;;;;;;;;;;4959427;29;20200;-87
2021/12/29 00:23:12;;;;;;;4.10;1.30;;;;;;;;;;4958306;28;20292;-87
2021/12/29 00:25:40;;;;;;;5.00;1.20;;;;;;;;;;4958293;29;20220;-87
2021/12/29 00:28:07;;;;;;;2.17;1.40;;;;;;;;;;4958399;28;20211;-86
2021/12/29 00:30:35;;;;;;;3.50;1.40;;;;;;;;;;4959139;28;20216;-87
2021/12/29 00:33:02;;;;;;;3.23;1.30;;;;;;;;;;4959630;28;20213;-87
2021/12/29 00:35:30;;;;;;;3.50;1.27;;;;;;;;;;4965947;28;20228;-87
2021/12/29 00:38:02;;;;;;;3.00;1.00;;;;;;;;;;4959248;28;20251;-86
2021/12/29 00:40:31;;;;;;;1.63;1.10;;;;;;;;;;4958046;29;20239;-86
2021/12/29 00:42:58;;;;;;;2.30;1.20;;;;;;;;;;4958743;28;20219;-86
2021/12/29 00:45:26;;;;;;;2.57;0.97;;;;;;;;;;4958891;28;20232;-86
2021/12/29 00:47:54;;;;;;;2.67;1.07;;;;;;;;;;4958334;28;20216;-86
2021/12/29 00:50:22;;;;;;;3.83;1.10;;;;;;;;;;4958283;28;20209;-87
2021/12/29 00:52:49;;;;;;;1.70;0.97;;;;;;;;;;4957726;28;20208;-86
2021/12/29 00:55:17;;;;;;;3.50;1.20;;;;;;;;;;4957593;28;20236;-86
2021/12/29 00:57:46;;;;;;;5.60;1.20;;;;;;;;;;4958143;28;20232;-86
2021/12/29 01:00:15;;;;;;;3.70;1.20;;;;;;;;;;4959771;28;20215;-86
2021/12/29 01:03:06;;;;;;;3.03;1.10;;;;;;;;;;4964199;28;20208;-86
2021/12/29 01:05:52;;;;;;;2.93;1.87;;;;;;;;;;4952606;29;20296;-87
2021/12/29 01:08:39;;;;;;;2.23;1.40;;;;;;;;;;4954955;29;20285;-86
2021/12/29 01:11:29;;;;;;;2.30;1.40;;;;;;;;;;4957909;29;20264;-86
2021/12/29 01:14:21;;;;;;;2.60;1.33;;;;;;;;;;4956484;29;20307;-86
2021/12/29 01:17:11;;;;;;;3.83;1.60;;;;;;;;;;4894843;29;20234;-86
2021/12/29 01:19:42;;;;;;;2.87;1.20;;;;;;;;;;4899470;28;20248;-88
2021/12/29 01:22:10;;;;;;;2.53;1.13;;;;;;;;;;4970790;28;20212;-87
2021/12/29 01:24:42;;;;;;;3.63;1.10;;;;;;;;;;4956583;28;20232;-87
2021/12/29 01:27:12;;;;;;;2.80;1.00;;;;;;;;;;4957240;29;20209;-87
2021/12/29 01:29:47;;;;;;;2.93;1.13;;;;;;;;;;4971023;28;20220;-87
2021/12/29 01:32:19;;;;;;;4.40;1.30;;;;;;;;;;4956348;29;20312;-87
2021/12/29 01:34:52;;;;;;;3.00;1.10;;;;;;;;;;4957716;29;20275;-87
2021/12/29 01:37:22;;;;;;;1.93;1.00;;;;;;;;;;4956738;29;20267;-87
2021/12/29 01:39:52;;;;;;;2.33;1.10;;;;;;;;;;4956600;29;20215;-87
2021/12/29 01:42:19;;;;;;;1.97;1.17;;;;;;;;;;4956644;28;20216;-87
2021/12/29 01:44:48;;;;;;;2.43;1.20;;;;;;;;;;4956972;28;20224;-86
2021/12/29 01:47:25;;;;;;;1.53;0.93;;;;;;;;;;4957058;28;20211;-87
2021/12/29 01:49:54;;;;;;;2.40;1.30;;;;;;;;;;4952244;29;20200;-86
2021/12/29 01:52:31;;;;;;;2.97;1.10;;;;;;;;;;4956728;28;20235;-86
2021/12/29 01:55:02;;;;;;;2.27;0.93;;;;;;;;;;4956803;29;20200;-85
2021/12/29 01:57:35;;;;;;;2.10;1.00;;;;;;;;;;4956083;28;20631;-86
2021/12/29 02:00:10;;;;;;;2.73;0.90;;;;;;;;;;4957608;29;20212;-87
2021/12/29 02:02:40;;;;;;;1.13;0.80;;;;;;;;;;4956901;29;20224;-86
2021/12/29 02:05:09;;;;;;;1.90;1.00;;;;;;;;;;4957658;28;20236;-87
2021/12/29 02:07:37;;;;;;;1.60;0.70;;;;;;;;;;4958400;28;20205;-87
2021/12/29 02:10:05;;;;;;;1.23;0.70;;;;;;;;;;4955653;29;20729;-86
2021/12/29 02:12:34;;;;;;;0.70;0.70;;;;;;;;;;4956683;28;20220;-86
2021/12/29 02:15:02;;;;;;;0.60;0.60;;;;;;;;;;4956721;28;20201;-86
2021/12/29 02:17:29;;;;;;;1.23;0.77;;;;;;;;;;4957531;28;20272;-86
2021/12/29 02:20:08;;;;;;;0.63;0.63;;;;;;;;;;4957751;28;20266;-86
2021/12/29 02:22:41;;;;;;;0.90;0.80;;;;;;;;;;4957806;28;20215;-86
2021/12/29 02:25:31;;;;;;;1.00;0.70;;;;;;;;;;4954316;29;20236;-88
2021/12/29 02:28:06;;;;;;;1.30;0.90;;;;;;;;;;4958097;28;20197;-87
2021/12/29 02:30:36;;;;;;;1.13;1.03;;;;;;;;;;4956631;29;20216;-86
2021/12/29 02:36:03;;;;;;;1.00;0.70;;;;;;;;;;4957485;29;20300;-87
2021/12/29 02:38:34;;;;;;;1.83;0.87;;;;;;;;;;4952621;29;20204;-85
2021/12/29 02:41:05;;;;;;;2.43;1.60;;;;;;;;;;4956870;28;20204;-86
2021/12/29 02:43:41;;;;;;;0.90;0.80;;;;;;;;;;4956719;29;20211;-86
2021/12/29 02:46:24;;;;;;;1.10;0.80;;;;;;;;;;4956011;29;20227;-87
2021/12/29 02:48:56;;;;;;;0.77;0.70;;;;;;;;;;4957066;29;20267;-87
2021/12/29 02:51:25;;;;;;;1.57;0.80;;;;;;;;;;4956332;29;20213;-88
2021/12/29 02:53:53;;;;;;;2.17;0.70;;;;;;;;;;4956476;28;20204;-86
2021/12/29 02:56:20;;;;;;;1.00;0.83;;;;;;;;;;4956259;28;20224;-86
2021/12/29 02:58:47;;;;;;;1.63;0.70;;;;;;;;;;4956381;28;20204;-86
2021/12/29 03:01:16;;;;;;;1.17;0.80;;;;;;;;;;4954960;28;20663;-86
2021/12/29 03:03:45;;;;;;;2.10;0.87;;;;;;;;;;4958042;28;20260;-86
2021/12/29 03:06:13;;;;;;;1.93;0.97;;;;;;;;;;4964996;28;20228;-86
2021/12/29 03:08:46;;;;;;;1.07;0.60;;;;;;;;;;4966239;28;20219;-86
2021/12/29 03:11:13;;;;;;;1.33;1.10;;;;;;;;;;4962638;29;20213;-86
2021/12/29 03:13:59;;;;;;;0.90;0.80;;;;;;;;;;4956906;28;20205;-86
2021/12/29 03:16:38;;;;;;;1.50;0.80;;;;;;;;;;4956312;29;20232;-86
2021/12/29 03:19:10;;;;;;;1.00;0.90;;;;;;;;;;4956436;29;20235;-85
2021/12/29 03:21:55;;;;;;;0.90;0.80;;;;;;;;;;4956691;28;20205;-86
2021/12/29 03:27:58;;;;;;;;;;;;;;;;;;;;;
2021/12/29 03:30:41;;;;;;;0.97;0.90;;;;;;;;;;4951325;29;20207;-86
2021/12/29 03:39:10;;;;;;;1.70;1.03;;;;;;;;;;4947220;28;20774;-86
2021/12/29 03:41:59;;;;;;;0.73;0.70;;;;;;;;;;4948880;29;20204;-86
2021/12/29 03:44:50;;;;;;;0.60;0.60;;;;;;;;;;4954683;29;20216;-87
2021/12/29 03:47:56;;;;;;;0.70;0.70;;;;;;;;;;4955296;29;20236;-86
2021/12/29 03:50:36;;;;;;;0.73;0.60;;;;;;;;;;4841418;29;20209;-87
2021/12/29 03:53:26;;;;;;;1.00;0.70;;;;;;;;;;4934023;28;20212;-86
2021/12/29 03:59:17;;;;;;;1.60;0.60;;;;;;;;;;4954946;29;20215;-86
2021/12/29 04:01:59;;;;;;;0.70;0.67;;;;;;;;;;4955647;29;20216;-86
2021/12/29 04:04:39;;;;;;;0.70;0.70;;;;;;;;;;4946963;29;20236;-88
2021/12/29 04:07:10;;;;;;;0.60;0.60;;;;;;;;;;4950792;29;20232;-88
2021/12/29 04:10:14;;;;;;;0.60;0.60;;;;;;;;;;4950882;29;20227;-88
2021/12/29 04:18:45;;;;;;;0.57;0.50;;;;;;;;;;4953217;28;20200;-87
2021/12/29 04:24:27;;;;;;;0.50;0.50;;;;;;;;;;4944390;29;20197;-86
2021/12/29 04:26:57;;;;;;;0.57;0.57;;;;;;;;;;4952912;29;20221;-90
2021/12/29 04:29:24;;;;;;;0.50;0.50;;;;;;;;;;4953169;29;20233;-88
2021/12/29 04:31:54;;;;;;;0.93;0.57;;;;;;;;;;4952918;29;20202;-88
2021/12/29 04:34:25;;;;;;;0.47;0.47;;;;;;;;;;4946872;29;20210;-90
2021/12/29 04:36:52;;;;;;;0.50;0.50;;;;;;;;;;4940910;28;20231;-88
2021/12/29 04:39:22;;;;;;;0.50;0.50;;;;;;;;;;4937180;29;20260;-87
2021/12/29 04:41:54;;;;;;;0.60;0.50;;;;;;;;;;4935802;29;20212;-87
2021/12/29 04:44:24;;;;;;;0.60;0.60;;;;;;;;;;4936294;29;20213;-87
2021/12/29 04:46:54;;;;;;;0.40;0.40;;;;;;;;;;4936231;29;20649;-87
2021/12/29 04:49:40;;;;;;;0.70;0.70;;;;;;;;;;4936268;29;20260;-87
2021/12/29 04:52:13;;;;;;;0.50;0.50;;;;;;;;;;4937065;29;20292;-87
2021/12/29 04:54:48;;;;;;;0.67;0.50;;;;;;;;;;4939528;29;20209;-87
2021/12/29 04:57:26;;;;;;;0.93;0.57;;;;;;;;;;4938684;29;20327;-85
2021/12/29 04:59:56;;;;;;;0.50;0.50;;;;;;;;;;4942110;29;20727;-86
2021/12/29 05:02:26;;;;;;;0.80;0.80;;;;;;;;;;4938571;29;20212;-86
2021/12/29 05:05:11;;;;;;;0.67;0.53;;;;;;;;;;4938717;29;20272;-87
2021/12/29 05:10:36;;;;;;;0.53;0.50;;;;;;;;;;4940125;29;20316;-88
2021/12/29 05:13:08;;;;;;;0.70;0.70;;;;;;;;;;4936419;29;20208;-86
2021/12/29 05:15:36;;;;;;;0.50;0.50;;;;;;;;;;4939310;29;20225;-86
2021/12/29 05:18:10;;;;;;;0.77;0.70;;;;;;;;;;4938511;29;20209;-86
2021/12/29 05:21:08;;;;;;;0.77;0.60;;;;;;;;;;4938547;29;20299;-87
2021/12/29 05:23:55;;;;;;;0.80;0.50;;;;;;;;;;4949011;28;20247;-86
2021/12/29 05:26:27;;;;;;;0.57;0.53;;;;;;;;;;4958108;29;20232;-87
2021/12/29 05:28:57;;;;;;;0.50;0.50;;;;;;;;;;4958702;29;20209;-87
2021/12/29 05:31:33;;;;;;;0.70;0.70;;;;;;;;;;4959256;28;20260;-87
2021/12/29 05:34:04;;;;;;;0.70;0.70;;;;;;;;;;4959602;29;20300;-86
2021/12/29 05:36:33;;;;;;;0.70;0.70;;;;;;;;;;4976755;29;20232;-89
2021/12/29 05:39:07;;;;;;;0.97;0.87;;;;;;;;;;4977292;28;20268;-86
2021/12/29 05:41:40;;;;;;;0.70;0.70;;;;;;;;;;4959081;29;20280;-87
2021/12/29 05:44:12;;;;;;;1.60;0.77;;;;;;;;;;4953882;29;20279;-87
2021/12/29 05:46:55;;;;;;;1.40;0.70;;;;;;;;;;4959638;29;20232;-87
2021/12/29 05:49:31;;;;;;;0.80;0.77;;;;;;;;;;4960935;29;20212;-87
2021/12/29 05:51:58;;;;;;;0.90;0.60;;;;;;;;;;4959639;29;20204;-86
2021/12/29 06:00:41;;;;;;;0.83;0.83;;;;;;;;;;4958373;29;20287;-86
2021/12/29 06:03:33;;;;;;;0.70;0.70;;;;;;;;;;4953741;28;20308;-86
2021/12/29 06:06:16;;;;;;;0.90;0.90;;;;;;;;;;4965202;28;20228;-86
2021/12/29 06:09:08;;;;;;;1.33;0.83;;;;;;;;;;4954795;28;20314;-85
2021/12/29 06:11:49;;;;;;;2.30;0.90;;;;;;;;;;4955132;28;20215;-87
2021/12/29 06:14:44;;;;;;;0.97;0.80;;;;;;;;;;4954355;29;20223;-86
2021/12/29 06:17:41;;;;;;;1.73;0.90;;;;;;;;;;4957431;28;20204;-86
2021/12/29 06:20:38;;;;;;;0.97;0.70;;;;;;;;;;4943708;28;20204;-86
2021/12/29 06:26:11;;;;;;;1.30;1.00;;;;;;;;;;4899140;29;20227;-87
2021/12/29 06:28:43;;;;;;;1.23;1.00;;;;;;;;;;4896456;29;20258;-86
2021/12/29 06:31:35;;;;;;;;;;;;;;;;;;;;;
2021/12/29 06:34:29;;;;;;;2.47;0.90;;;;;;;;;;4897616;29;20202;-86
2021/12/29 06:40:16;;;;;;;2.43;1.10;;;;;;;;;;4852712;29;20215;-86
2021/12/29 06:42:51;;;;;;;0.90;0.90;;;;;;;;;;4862148;29;20206;-86
2021/12/29 09:46:28;;;;;;;4.00;1.40;;;;;;;;;;4928910;29;20284;-83
2021/12/29 10:07:39;;;;;;;3.23;2.03;;;;;;;;;;5190582;23;20235;-86
2021/12/29 10:10:23;;;;;;;2.10;1.80;;;;;;;;;;4977936;28;20317;-85
2021/12/29 10:12:51;;;;;;;1.83;1.60;;;;;;;;;;4982326;28;20211;-85
2021/12/29 10:18:29;;;;;;;2.13;1.60;;;;;;;;;;5004404;23;20233;-88
2021/12/29 10:20:57;;;;;;;3.10;1.53;;;;;;;;;;4991168;28;20666;-85
2021/12/29 10:23:26;;;;;;;2.87;2.00;;;;;;;;;;4990165;28;20266;-86
2021/12/29 10:25:56;;;;;;;3.67;2.47;;;;;;;;;;4989638;28;20219;-86
2021/12/29 10:28:25;;;;;;;3.63;1.50;;;;;;;;;;4966792;28;20201;-86
2021/12/29 10:31:01;;;;;;;3.53;1.63;;;;;;;;;;4967577;28;20255;-86
2021/12/29 10:33:33;;;;;;;2.47;1.57;;;;;;;;;;4966942;28;20212;-86
2021/12/29 10:36:15;;;;;;;2.30;1.47;;;;;;;;;;4958563;29;20200;-87
2021/12/29 10:38:53;;;;;;;1.90;1.30;;;;;;;;;;4956273;29;20228;-89
2021/12/29 10:41:22;;;;;;;2.40;1.50;;;;;;;;;;4948474;29;20283;-91
2021/12/29 10:43:57;;;;;;;2.97;1.60;;;;;;;;;;4955210;28;20210;-88
2021/12/29 10:46:26;;;;;;;2.90;1.30;;;;;;;;;;4955144;29;20290;-89
2021/12/29 10:48:55;;;;;;;2.60;1.43;;;;;;;;;;4936815;29;20205;-89
2021/12/29 10:51:31;;;;;;;1.50;1.37;;;;;;;;;;4956184;29;20204;-87
2021/12/29 10:54:15;;;;;;;2.60;1.83;;;;;;;;;;4957305;29;20200;-87
2021/12/29 10:56:46;;;;;;;2.60;1.37;;;;;;;;;;4957607;29;20220;-88
2021/12/29 11:00:04;;;;;;;1.80;1.40;;;;;;;;;;4958768;28;20276;-91
2021/12/29 11:02:36;;;;;;;1.63;1.40;;;;;;;;;;4953907;29;20690;-87
2021/12/29 11:05:05;;;;;;;2.33;1.47;;;;;;;;;;4955413;28;20252;-86
2021/12/29 11:07:34;;;;;;;3.20;1.40;;;;;;;;;;4964312;28;20229;-86
2021/12/29 11:10:09;;;;;;;3.37;1.40;;;;;;;;;;4962583;28;20254;-88
2021/12/29 11:12:46;;;;;;;2.43;1.40;;;;;;;;;;4968119;28;20291;-85
2021/12/29 11:15:18;;;;;;;2.27;1.20;;;;;;;;;;4967555;28;20207;-87
2021/12/29 11:17:45;;;;;;;2.23;1.20;;;;;;;;;;4960323;28;20228;-90
2021/12/29 11:23:15;;;;;;;1.87;1.00;;;;;;;;;;4942511;28;20207;-85
2021/12/29 11:26:03;;;;;;;1.97;1.40;;;;;;;;;;4960518;28;20255;-86
2021/12/29 11:28:45;;;;;;;2.40;1.20;;;;;;;;;;4956460;28;20205;-87
2021/12/29 11:37:04;;;;;;;2.67;1.30;;;;;;;;;;4928732;28;20307;-84
2021/12/29 11:39:45;;;;;;;1.67;1.20;;;;;;;;;;4963720;28;20204;-85
2021/12/29 11:45:34;;;;;;;2.73;1.73;;;;;;;;;;4863500;29;20320;-86
2021/12/29 11:48:01;;;;;;;2.00;1.40;;;;;;;;;;4916727;28;20326;-85
2021/12/29 11:50:30;;;;;;;1.87;1.27;;;;;;;;;;4958449;28;20204;-86
2021/12/29 11:53:10;;;;;;;2.43;1.40;;;;;;;;;;4956814;28;20267;-86
2021/12/29 11:55:47;;;;;;;3.90;1.87;;;;;;;;;;4962643;28;20205;-86
2021/12/29 11:58:31;;;;;;;2.10;1.43;;;;;;;;;;4965400;28;20319;-86
2021/12/29 12:01:08;;;;;;;2.40;1.37;;;;;;;;;;4959757;28;20200;-86
2021/12/29 12:04:00;;;;;;;1.67;1.07;;;;;;;;;;4957022;29;20223;-90
2021/12/29 12:06:29;;;;;;;2.63;1.20;;;;;;;;;;4953170;29;20719;-86
2021/12/29 12:09:10;;;;;;;2.43;1.30;;;;;;;;;;4957447;29;20209;-84
2021/12/29 12:11:41;;;;;;;2.50;1.10;;;;;;;;;;4961346;29;20211;-85
2021/12/29 12:48:55;;;;;;;2.13;1.30;;;;;;;;;;4717192;30;20287;-86
2021/12/29 12:51:39;;;;;;;1.97;1.10;;;;;;;;;;4740312;30;20227;-86
2021/12/29 12:54:18;;;;;;;1.87;1.30;;;;;;;;;;4744773;30;20284;-85
2021/12/29 13:16:08;;;;;;;1.93;1.50;;;;;;;;;;4968547;29;20212;-84
2021/12/29 13:22:02;;;;;;;3.23;1.50;;;;;;;;;;4885293;29;20213;-85
2021/12/29 14:53:44;;;;;;;3.60;1.50;;;;;;;;;;1112854;23;20485;-83
2021/12/29 14:56:14;;;;;;;7.17;4.60;;;;;;;;;;4987632;28;20218;-81
2021/12/29 14:58:41;;;;;;;5.17;3.00;;;;;;;;;;4989206;28;20270;-81
2021/12/29 15:01:11;;;;;;;5.47;3.60;;;;;;;;;;4991886;28;20270;-81
2021/12/29 15:03:39;;;;;;;8.10;4.93;;;;;;;;;;4994422;28;20254;-86
2021/12/29 15:06:06;;;;;;;3.97;2.00;;;;;;;;;;4991973;28;20267;-83
2021/12/29 15:08:38;;;;;;;2.57;1.53;;;;;;;;;;4993752;28;20259;-82
2021/12/29 15:11:09;;;;;;;2.10;1.43;;;;;;;;;;4992947;28;20270;-83
2021/12/29 15:13:41;;;;;;;2.33;1.60;;;;;;;;;;4994632;28;20223;-82
2021/12/29 15:16:09;;;;;;;3.77;1.60;;;;;;;;;;4993785;28;20203;-83
2021/12/29 15:18:39;;;;;;;1.60;1.20;;;;;;;;;;4993124;28;20262;-82
2021/12/29 15:21:08;;;;;;;3.83;1.57;;;;;;;;;;4991554;28;20277;-83
2021/12/29 15:23:37;;;;;;;1.80;1.40;;;;;;;;;;4991884;28;20199;-83
2021/12/29 15:26:05;;;;;;;2.00;1.63;;;;;;;;;;4992151;28;20203;-83
2021/12/29 15:31:58;;;;;;;2.50;1.50;;;;;;;;;;4988485;28;20394;-86
2021/12/29 15:40:52;;;;;;;1.60;1.10;;;;;;;;;;4988513;28;20317;-86
2021/12/29 15:59:18;;;;;;;1.65;1.40;;;;;;;;;;735094;23;20508;31
2021/12/29 16:01:47;;;;;;;1.53;1.40;;;;;;;;;;4958136;29;20453;-84
2021/12/29 16:04:17;;;;;;;2.23;1.40;;;;;;;;;;4965480;28;20216;-84
2021/12/29 16:06:44;;;;;;;1.53;1.33;;;;;;;;;;4982718;23;20215;-87
2021/12/29 16:09:12;;;;;;;2.07;1.60;;;;;;;;;;4988860;28;20231;-89
2021/12/29 16:11:39;;;;;;;1.80;1.40;;;;;;;;;;4988388;28;20203;-88
2021/12/29 16:14:06;;;;;;;2.53;1.60;;;;;;;;;;4997906;28;20218;-88
2021/12/29 16:16:42;;;;;;;2.10;1.47;;;;;;;;;;4985864;28;20211;-87
2021/12/29 16:19:11;;;;;;;2.03;1.40;;;;;;;;;;4987866;28;20214;-88
2021/12/29 16:21:40;;;;;;;1.80;1.57;;;;;;;;;;4992251;28;20241;-87
2021/12/29 16:24:09;;;;;;;1.57;1.47;;;;;;;;;;4993149;28;20211;-88
2021/12/29 16:26:37;;;;;;;2.73;1.67;;;;;;;;;;4988452;28;20199;-88
2021/12/29 16:29:04;;;;;;;2.80;2.20;;;;;;;;;;4988936;28;20227;-88
2021/12/29 16:31:34;;;;;;;2.10;1.70;;;;;;;;;;4988141;28;20529;-85
2021/12/29 16:34:01;;;;;;;1.90;1.70;;;;;;;;;;4992089;28;20227;-85
2021/12/29 16:36:33;;;;;;;3.73;2.00;;;;;;;;;;4988320;28;20270;-85
2021/12/29 16:39:00;;;;;;;2.40;2.17;;;;;;;;;;4992601;28;20249;-86
2021/12/29 16:41:28;;;;;;;3.03;1.80;;;;;;;;;;4991461;28;20200;-86
2021/12/29 16:44:01;;;;;;;2.33;2.10;;;;;;;;;;4992494;28;20306;-85
2021/12/29 16:46:28;;;;;;;2.00;1.73;;;;;;;;;;4990008;28;20309;-85
2021/12/29 16:48:55;;;;;;;4.17;1.90;;;;;;;;;;4990351;28;20223;-85
2021/12/29 16:51:23;;;;;;;2.10;1.87;;;;;;;;;;4993824;28;20203;-87
2021/12/29 16:53:52;;;;;;;2.67;1.80;;;;;;;;;;4995640;28;20207;-86
2021/12/29 16:56:20;;;;;;;3.13;1.97;;;;;;;;;;4993629;28;20204;-87
2021/12/29 16:58:47;;;;;;;3.13;2.00;;;;;;;;;;4994152;28;20222;-87
2021/12/29 17:01:16;;;;;;;2.83;1.63;;;;;;;;;;4994861;28;20231;-87
2021/12/29 17:03:44;;;;;;;1.93;1.63;;;;;;;;;;4998413;28;20299;-85
2021/12/29 17:06:11;;;;;;;2.27;1.87;;;;;;;;;;4995577;28;20209;-88
2021/12/29 17:08:39;;;;;;;2.20;1.83;;;;;;;;;;4995991;28;20262;-87
2021/12/29 17:11:08;;;;;;;3.07;2.30;;;;;;;;;;4995324;28;20202;-89
2021/12/29 17:13:35;;;;;;;3.73;2.07;;;;;;;;;;4994262;28;20296;-87
2021/12/29 17:16:03;;;;;;;2.10;1.77;;;;;;;;;;5000835;28;20226;-86
2021/12/29 17:18:30;;;;;;;2.13;1.93;;;;;;;;;;5001255;28;20215;-87
2021/12/29 17:20:57;;;;;;;2.13;1.93;;;;;;;;;;4997294;28;20306;-87
2021/12/29 17:23:25;;;;;;;1.90;1.80;;;;;;;;;;4993501;28;20283;-87
2021/12/29 17:25:56;;;;;;;2.10;1.90;;;;;;;;;;4992206;28;20255;-87
2021/12/29 17:28:29;;;;;;;1.70;1.60;;;;;;;;;;4995159;28;20231;-87
2021/12/29 17:30:59;;;;;;;1.70;1.60;;;;;;;;;;4994781;28;20294;-87
2021/12/29 17:33:27;;;;;;;1.90;1.80;;;;;;;;;;4994441;28;20261;-87
2021/12/29 17:35:55;;;;;;;2.17;2.00;;;;;;;;;;4994391;28;20214;-87
2021/12/29 17:38:23;;;;;;;1.97;1.70;;;;;;;;;;4993576;28;20259;-86
2021/12/29 17:40:51;;;;;;;1.70;1.60;;;;;;;;;;4992442;28;20203;-87
2021/12/29 17:43:18;;;;;;;2.07;1.67;;;;;;;;;;4994732;28;20207;-87
2021/12/29 17:45:48;;;;;;;1.77;1.60;;;;;;;;;;4984474;28;20215;-87
2021/12/29 17:48:21;;;;;;;1.90;1.80;;;;;;;;;;4994631;28;20231;-86
2021/12/29 17:50:49;;;;;;;1.70;1.60;;;;;;;;;;4996623;28;20218;-87
2021/12/29 17:53:18;;;;;;;1.83;1.30;;;;;;;;;;4994326;28;20230;-87
2021/12/29 17:55:45;;;;;;;1.50;1.40;;;;;;;;;;4994415;28;20238;-86
2021/12/29 17:58:13;;;;;;;1.53;1.43;;;;;;;;;;5003009;28;20227;-87
2021/12/29 18:00:41;;;;;;;1.77;1.67;;;;;;;;;;5015028;28;20237;-88
2021/12/29 18:03:14;;;;;;;1.80;1.60;;;;;;;;;;5016838;28;20210;-87
2021/12/29 18:05:44;;;;;;;1.80;1.60;;;;;;;;;;5014425;28;20208;-87
2021/12/29 18:08:11;;;;;;;1.80;1.70;;;;;;;;;;5001461;28;20227;-86
2021/12/29 18:10:40;;;;;;;1.50;1.40;;;;;;;;;;4995452;28;20223;-87
2021/12/29 18:13:07;;;;;;;2.03;1.70;;;;;;;;;;4993491;28;20227;-87
2021/12/29 18:15:37;;;;;;;1.63;1.53;;;;;;;;;;4995530;28;20203;-88
2021/12/29 18:18:06;;;;;;;1.90;1.80;;;;;;;;;;4995483;28;20246;-86
2021/12/29 18:20:36;;;;;;;1.90;1.80;;;;;;;;;;4995852;28;20206;-88
2021/12/29 18:23:05;;;;;;;3.53;3.23;;;;;;;;;;4994506;28;20226;-87
2021/12/29 18:25:33;;;;;;;3.80;3.50;;;;;;;;;;4995202;28;20203;-87
2021/12/29 18:28:03;;;;;;;3.07;2.77;;;;;;;;;;4995931;28;20219;-87
2021/12/29 18:30:30;;;;;;;3.47;2.77;;;;;;;;;;4993958;28;20234;-87
2021/12/29 18:32:58;;;;;;;4.30;3.90;;;;;;;;;;4994022;28;20199;-87
2021/12/29 18:35:29;;;;;;;4.67;3.67;;;;;;;;;;4995602;28;20249;-87
2021/12/29 18:37:59;;;;;;;4.20;3.80;;;;;;;;;;4995673;28;20227;-88
2021/12/29 18:40:27;;;;;;;2.63;2.43;;;;;;;;;;4994358;28;20226;-87
2021/12/29 18:43:03;;;;;;;2.77;2.40;;;;;;;;;;4992960;28;20246;-88
2021/12/29 18:45:31;;;;;;;3.90;3.30;;;;;;;;;;4993536;28;20579;-87
2021/12/29 18:48:05;;;;;;;2.20;2.00;;;;;;;;;;4993456;28;20266;-88
2021/12/29 18:50:40;;;;;;;2.40;2.20;;;;;;;;;;4993708;28;20203;-86
2021/12/29 18:53:12;;;;;;;2.40;2.20;;;;;;;;;;4991901;28;20195;-88
2021/12/29 18:55:42;;;;;;;2.67;2.47;;;;;;;;;;4992393;28;20203;-87
2021/12/29 18:58:09;;;;;;;2.40;2.20;;;;;;;;;;4991561;28;20215;-86
2021/12/29 19:00:38;;;;;;;4.40;4.00;;;;;;;;;;4993025;28;20464;-87
2021/12/29 19:03:08;;;;;;;2.30;2.10;;;;;;;;;;4994327;28;20199;-86
2021/12/29 19:05:35;;;;;;;3.27;2.50;;;;;;;;;;4993952;28;20199;-85
2021/12/29 19:08:05;;;;;;;2.73;2.53;;;;;;;;;;4993798;28;20254;-85
2021/12/29 19:10:33;;;;;;;2.70;2.50;;;;;;;;;;4989676;28;20205;-85
2021/12/29 19:13:04;;;;;;;2.50;2.30;;;;;;;;;;4994452;28;20238;-88
2021/12/29 19:15:32;;;;;;;2.70;2.50;;;;;;;;;;4993149;28;20238;-86
2021/12/29 19:18:00;;;;;;;2.50;2.30;;;;;;;;;;4993898;28;20223;-86
2021/12/29 19:20:30;;;;;;;2.80;2.40;;;;;;;;;;4987801;28;20267;-86
2021/12/29 19:22:58;;;;;;;2.73;2.53;;;;;;;;;;4993182;28;20207;-87
2021/12/29 19:25:30;;;;;;;2.70;2.50;;;;;;;;;;4989215;28;20230;-88
2021/12/29 19:27:59;;;;;;;2.60;2.40;;;;;;;;;;4992527;28;20237;-85
2021/12/29 19:30:27;;;;;;;2.57;2.30;;;;;;;;;;4990725;28;20294;-88
2021/12/29 19:32:56;;;;;;;2.87;2.50;;;;;;;;;;4991606;28;20710;-87
2021/12/29 19:35:24;;;;;;;2.57;2.37;;;;;;;;;;4992660;28;20203;-86
2021/12/29 19:37:52;;;;;;;2.50;2.30;;;;;;;;;;4991562;28;20227;-89
2021/12/29 19:40:24;;;;;;;3.03;2.73;;;;;;;;;;4993246;28;20269;-86
2021/12/29 19:42:52;;;;;;;2.80;2.53;;;;;;;;;;4986532;28;20225;-87
2021/12/29 19:45:21;;;;;;;2.83;2.63;;;;;;;;;;4994671;28;20207;-84
2021/12/29 19:47:53;;;;;;;2.60;2.40;;;;;;;;;;4991976;28;20315;-82
2021/12/29 19:50:25;;;;;;;2.50;2.30;;;;;;;;;;4989661;28;20215;-87
2021/12/29 19:52:53;;;;;;;3.10;2.83;;;;;;;;;;4979730;28;20207;-85
2021/12/29 19:55:38;;;;;;;2.67;2.47;;;;;;;;;;4995086;28;20211;-85
2021/12/29 19:58:06;;;;;;;3.33;3.03;;;;;;;;;;4985333;28;20778;-85
2021/12/29 20:00:37;;;;;;;3.20;2.90;;;;;;;;;;4993710;28;20211;-84
2021/12/29 20:03:05;;;;;;;2.90;2.70;;;;;;;;;;4993849;28;20238;-85
2021/12/29 20:05:37;;;;;;;2.93;2.73;;;;;;;;;;4995543;28;20211;-87
2021/12/29 20:08:12;;;;;;;3.70;3.40;;;;;;;;;;4993260;28;20235;-84
2021/12/29 20:10:40;;;;;;;3.10;2.80;;;;;;;;;;4996370;28;20202;-87
2021/12/29 20:13:07;;;;;;;3.63;3.33;;;;;;;;;;4998617;28;20229;-86
2021/12/29 20:15:38;;;;;;;3.43;3.13;;;;;;;;;;4995154;28;20204;-86
2021/12/29 20:18:06;;;;;;;3.37;3.07;;;;;;;;;;4996002;28;20250;-87
2021/12/29 20:20:34;;;;;;;3.50;3.20;;;;;;;;;;4997232;28;20283;-84
2021/12/29 20:23:01;;;;;;;3.00;2.70;;;;;;;;;;4999154;28;20207;-83
2021/12/29 20:25:31;;;;;;;3.40;3.10;;;;;;;;;;4998690;28;20225;-85
2021/12/29 20:27:59;;;;;;;3.07;2.87;;;;;;;;;;5001435;28;20235;-84
2021/12/29 20:30:29;;;;;;;3.03;2.73;;;;;;;;;;4998598;28;20218;-85
2021/12/29 20:32:58;;;;;;;3.10;2.80;;;;;;;;;;4997928;28;20207;-85
2021/12/29 20:35:25;;;;;;;3.97;3.67;;;;;;;;;;4997477;28;20203;-85
2021/12/29 20:37:54;;;;;;;3.03;2.83;;;;;;;;;;4994658;28;20266;-85
2021/12/29 20:40:22;;;;;;;3.20;3.00;;;;;;;;;;4992700;28;20265;-86
2021/12/29 20:42:50;;;;;;;2.93;2.73;;;;;;;;;;4993707;28;20273;-85
2021/12/29 20:45:18;;;;;;;3.07;2.60;;;;;;;;;;4997756;28;20218;-85
2021/12/29 20:47:46;;;;;;;3.20;2.90;;;;;;;;;;4996426;28;20219;-85
2021/12/29 20:50:15;;;;;;;3.27;2.93;;;;;;;;;;4993724;28;20220;-86
2021/12/29 20:52:44;;;;;;;3.70;3.40;;;;;;;;;;4991622;28;20254;-85
2021/12/29 20:55:15;;;;;;;2.90;2.70;;;;;;;;;;4990214;28;20199;-87
2021/12/29 20:57:42;;;;;;;3.20;2.90;;;;;;;;;;4991337;28;20306;-85
2021/12/29 21:00:11;;;;;;;3.53;3.23;;;;;;;;;;4993305;28;20286;-86
2021/12/29 21:02:39;;;;;;;3.40;3.10;;;;;;;;;;4994245;28;20292;-85
2021/12/29 21:05:08;;;;;;;3.50;3.20;;;;;;;;;;4989427;28;20732;-85
2021/12/29 21:07:40;;;;;;;1.50;1.40;;;;;;;;;;4991857;28;20241;-86
2021/12/29 21:10:09;;;;;;;0.90;0.90;;;;;;;;;;4992004;28;20207;-85
2021/12/29 21:12:36;;;;;;;1.00;1.00;;;;;;;;;;4991569;28;20215;-86
2021/12/29 21:15:14;;;;;;;1.10;1.00;;;;;;;;;;4987426;28;20203;-86
2021/12/29 21:17:41;;;;;;;0.80;0.80;;;;;;;;;;4995617;28;20290;-85
2021/12/29 21:20:09;;;;;;;0.70;0.70;;;;;;;;;;4992292;28;20290;-86
2021/12/29 21:22:39;;;;;;;2.23;0.80;;;;;;;;;;4995461;28;20199;-86
2021/12/29 21:25:10;;;;;;;0.60;0.60;;;;;;;;;;4993435;28;20290;-86
2021/12/29 21:27:38;;;;;;;0.70;0.70;;;;;;;;;;4994489;28;20326;-86
2021/12/29 21:30:07;;;;;;;0.83;0.60;;;;;;;;;;4993570;28;20234;-86
2021/12/29 21:32:34;;;;;;;1.03;0.60;;;;;;;;;;5001233;28;20195;-86
2021/12/29 21:35:02;;;;;;;0.50;0.50;;;;;;;;;;4994697;28;20211;-86
2021/12/29 21:37:30;;;;;;;0.50;0.50;;;;;;;;;;4995335;28;20313;-86
2021/12/29 21:39:58;;;;;;;1.00;0.60;;;;;;;;;;4995322;28;20210;-86
2021/12/29 21:42:26;;;;;;;0.70;0.70;;;;;;;;;;4994394;28;20399;-86
2021/12/29 21:44:53;;;;;;;0.70;0.70;;;;;;;;;;4995571;28;20294;-87
2021/12/29 21:47:21;;;;;;;0.63;0.63;;;;;;;;;;4995507;28;20237;-87
2021/12/29 21:49:49;;;;;;;0.57;0.57;;;;;;;;;;4995090;28;20223;-87
2021/12/29 21:52:16;;;;;;;0.80;0.80;;;;;;;;;;4995015;28;20265;-86
2021/12/29 21:54:46;;;;;;;1.13;0.80;;;;;;;;;;4996634;28;20306;-86
2021/12/29 21:57:15;;;;;;;0.70;0.70;;;;;;;;;;4995956;28;20314;-85
2021/12/29 21:59:42;;;;;;;0.80;0.77;;;;;;;;;;4996822;28;20210;-85
2021/12/29 22:02:10;;;;;;;1.57;0.60;;;;;;;;;;4996503;28;20298;-85
2021/12/29 22:04:37;;;;;;;0.87;0.70;;;;;;;;;;4997844;28;20265;-85
2021/12/29 22:07:09;;;;;;;0.70;0.70;;;;;;;;;;5011054;23;20245;-83
2021/12/29 22:09:46;;;;;;;1.10;0.70;;;;;;;;;;4981968;28;20287;-84
2021/12/29 22:12:15;;;;;;;0.63;0.63;;;;;;;;;;4976411;28;20283;-83
2021/12/29 22:14:45;;;;;;;0.80;0.60;;;;;;;;;;4980867;28;20208;-84
2021/12/29 22:17:13;;;;;;;1.27;0.80;;;;;;;;;;4982794;28;20227;-84
2021/12/29 22:19:43;;;;;;;1.17;0.80;;;;;;;;;;4995640;28;20586;-85
2021/12/29 22:22:13;;;;;;;0.87;0.60;;;;;;;;;;4981732;28;20203;-85